Time;durP1;ratioP1;P1;durP2;ratioP2;P2;SDS_P1;SDS_P2;PMS_P1;PMS_P2;Temp;Humidity;BMP_temperature;BMP_pressure;BME280_temperature;BME280_humidity;BME280_pressure;Samples;Min_cycle;Max_cycle;Signal;HPM_P1;HPM_P2
2022/11/14 00:01:48;;;;;;;18.75;13.27;;;;;;;;;;5018486;28;20096;-76
2022/11/14 00:04:32;;;;;;;18.27;13.20;;;;;;;;;;5017062;28;20394;-74
2022/11/14 00:07:16;;;;;;;21.42;14.70;;;;;;;;;;5016563;28;20555;-74
2022/11/14 00:10:00;;;;;;;26.55;16.50;;;;;;;;;;5016777;28;20117;-74
2022/11/14 00:12:44;;;;;;;25.17;16.13;;;;;;;;;;5016596;28;20057;-74
2022/11/14 00:15:28;;;;;;;21.83;15.05;;;;;;;;;;5016484;28;20060;-75
2022/11/14 00:18:12;;;;;;;18.25;13.32;;;;;;;;;;5016294;28;20496;-75
2022/11/14 00:20:56;;;;;;;25.05;15.95;;;;;;;;;;5016416;28;20509;-74
2022/11/14 00:23:40;;;;;;;22.85;15.00;;;;;;;;;;5016558;28;20501;-74
2022/11/14 00:26:24;;;;;;;26.98;15.82;;;;;;;;;;5016279;28;20184;-74
2022/11/14 00:29:09;;;;;;;24.15;15.35;;;;;;;;;;5016798;28;20092;-74
2022/11/14 00:31:53;;;;;;;19.52;13.27;;;;;;;;;;5015907;28;20041;-74
2022/11/14 00:34:37;;;;;;;19.98;13.52;;;;;;;;;;5016340;28;20125;-74
2022/11/14 00:37:21;;;;;;;17.95;12.88;;;;;;;;;;5014970;28;20041;-74
2022/11/14 00:40:05;;;;;;;19.50;14.55;;;;;;;;;;5015979;28;20041;-75
2022/11/14 00:42:49;;;;;;;18.52;13.20;;;;;;;;;;5015923;28;20041;-75
2022/11/14 00:45:33;;;;;;;18.75;12.75;;;;;;;;;;5015563;28;20097;-75
2022/11/14 00:48:18;;;;;;;15.98;11.90;;;;;;;;;;5014887;28;20531;-75
2022/11/14 00:51:01;;;;;;;17.67;13.23;;;;;;;;;;5015717;28;20519;-75
2022/11/14 00:53:45;;;;;;;17.30;12.30;;;;;;;;;;5014639;28;20040;-74
2022/11/14 00:56:29;;;;;;;18.67;12.73;;;;;;;;;;5015636;28;20045;-75
2022/11/14 00:59:13;;;;;;;15.63;11.65;;;;;;;;;;5015087;28;20077;-75
2022/11/14 01:01:57;;;;;;;17.42;11.65;;;;;;;;;;5014371;28;20088;-75
2022/11/14 01:04:41;;;;;;;16.55;11.73;;;;;;;;;;5015728;28;20045;-74
2022/11/14 01:07:25;;;;;;;14.52;11.20;;;;;;;;;;5015161;28;20040;-75
2022/11/14 01:10:09;;;;;;;15.30;11.68;;;;;;;;;;5014949;28;20045;-75
2022/11/14 01:12:53;;;;;;;15.68;11.52;;;;;;;;;;5014569;28;20052;-74
2022/11/14 01:15:37;;;;;;;14.85;11.55;;;;;;;;;;5015457;28;20037;-75
2022/11/14 01:18:21;;;;;;;12.85;10.13;;;;;;;;;;5015491;28;20560;-76
2022/11/14 01:21:06;;;;;;;15.50;11.23;;;;;;;;;;5015303;28;20072;-76
2022/11/14 01:23:50;;;;;;;15.50;11.68;;;;;;;;;;5015470;28;20053;-75
2022/11/14 01:26:34;;;;;;;15.13;11.07;;;;;;;;;;5015093;28;20048;-75
2022/11/14 01:29:18;;;;;;;17.05;12.75;;;;;;;;;;5015379;28;20045;-73
2022/11/14 01:32:02;;;;;;;16.58;11.65;;;;;;;;;;5014945;28;20076;-74
2022/11/14 01:34:46;;;;;;;14.77;11.02;;;;;;;;;;5015706;28;20088;-74
2022/11/14 01:37:29;;;;;;;15.52;11.60;;;;;;;;;;5013892;28;20117;-74
2022/11/14 01:40:14;;;;;;;15.45;12.18;;;;;;;;;;5015378;28;20040;-74
2022/11/14 01:43:09;;;;;;;15.43;11.68;;;;;;;;;;5014843;28;20546;-73
2022/11/14 01:45:53;;;;;;;15.75;11.25;;;;;;;;;;5014360;28;20409;-73
2022/11/14 01:48:40;;;;;;;13.73;10.45;;;;;;;;;;5014776;28;20043;-73
2022/11/14 01:51:27;;;;;;;14.00;11.35;;;;;;;;;;5014431;28;20044;-73
2022/11/14 01:54:14;;;;;;;13.38;10.48;;;;;;;;;;5015313;28;20036;-74
2022/11/14 01:56:59;;;;;;;12.98;10.27;;;;;;;;;;5013310;28;20552;-75
2022/11/14 01:59:45;;;;;;;13.52;10.93;;;;;;;;;;5015017;28;20052;-74
2022/11/14 02:02:30;;;;;;;14.80;10.60;;;;;;;;;;5013834;28;20048;-74
2022/11/14 02:05:15;;;;;;;14.13;11.18;;;;;;;;;;5015050;28;20104;-74
2022/11/14 02:07:58;;;;;;;15.00;11.15;;;;;;;;;;5014267;28;20041;-74
2022/11/14 02:10:43;;;;;;;14.82;10.75;;;;;;;;;;5013541;28;20091;-74
2022/11/14 02:13:27;;;;;;;13.57;10.30;;;;;;;;;;5014913;28;20490;-74
2022/11/14 02:16:11;;;;;;;14.63;10.27;;;;;;;;;;5014150;28;20085;-74
2022/11/14 02:18:55;;;;;;;12.82;10.32;;;;;;;;;;5014290;28;20044;-74
2022/11/14 02:21:39;;;;;;;12.88;10.20;;;;;;;;;;5014749;28;20041;-74
2022/11/14 02:24:23;;;;;;;12.32;9.55;;;;;;;;;;5013438;28;20121;-74
2022/11/14 02:27:07;;;;;;;13.50;9.15;;;;;;;;;;5014682;28;20602;-74
2022/11/14 02:29:51;;;;;;;12.70;10.38;;;;;;;;;;5014136;28;20122;-75
2022/11/14 02:32:35;;;;;;;11.68;9.45;;;;;;;;;;5030690;28;20436;-74
2022/11/14 02:35:19;;;;;;;12.27;9.68;;;;;;;;;;5034072;28;20043;-73
2022/11/14 02:38:03;;;;;;;12.63;10.40;;;;;;;;;;5032860;28;20500;-73
2022/11/14 02:40:47;;;;;;;10.23;8.80;;;;;;;;;;5033950;28;20504;-73
2022/11/14 02:43:31;;;;;;;13.15;10.18;;;;;;;;;;5034249;28;20040;-74
2022/11/14 02:46:14;;;;;;;14.05;10.55;;;;;;;;;;5032937;28;20539;-73
2022/11/14 02:48:58;;;;;;;13.90;10.35;;;;;;;;;;5038106;28;20163;-75
2022/11/14 02:51:43;;;;;;;12.27;9.82;;;;;;;;;;5035930;28;20524;-74
2022/11/14 02:54:27;;;;;;;12.85;9.02;;;;;;;;;;5033275;28;20120;-74
2022/11/14 02:57:10;;;;;;;11.77;9.00;;;;;;;;;;5033222;28;20090;-74
2022/11/14 02:59:55;;;;;;;10.70;8.73;;;;;;;;;;5034072;28;20091;-74
2022/11/14 03:02:38;;;;;;;13.32;9.77;;;;;;;;;;5033563;28;20080;-74
2022/11/14 03:05:22;;;;;;;12.02;9.60;;;;;;;;;;5032821;28;20095;-74
2022/11/14 03:08:06;;;;;;;13.57;9.57;;;;;;;;;;5033557;28;20056;-73
2022/11/14 03:10:50;;;;;;;12.73;9.65;;;;;;;;;;5033190;28;20045;-74
2022/11/14 03:13:34;;;;;;;12.57;9.50;;;;;;;;;;5033659;28;20094;-74
2022/11/14 03:16:18;;;;;;;14.23;10.18;;;;;;;;;;5032924;28;20168;-73
2022/11/14 03:19:02;;;;;;;16.67;10.88;;;;;;;;;;5035703;28;20401;-74
2022/11/14 03:21:46;;;;;;;13.10;10.15;;;;;;;;;;5037236;28;20448;-73
2022/11/14 03:24:30;;;;;;;13.57;10.13;;;;;;;;;;5037244;28;20045;-73
2022/11/14 03:27:14;;;;;;;13.20;10.38;;;;;;;;;;5037453;28;20112;-72
2022/11/14 03:29:58;;;;;;;15.57;11.10;;;;;;;;;;5037589;28;20532;-72
2022/11/14 03:32:42;;;;;;;14.70;11.52;;;;;;;;;;5037082;28;20095;-73
2022/11/14 03:35:26;;;;;;;15.98;10.98;;;;;;;;;;5036174;28;20099;-74
2022/11/14 03:38:10;;;;;;;15.60;10.98;;;;;;;;;;5037478;28;20039;-75
2022/11/14 03:40:54;;;;;;;14.15;11.00;;;;;;;;;;5036868;28;20040;-75
2022/11/14 03:43:38;;;;;;;17.65;12.23;;;;;;;;;;5036726;28;20041;-74
2022/11/14 03:46:22;;;;;;;18.75;12.68;;;;;;;;;;5036876;28;20109;-74
2022/11/14 03:49:06;;;;;;;18.27;12.20;;;;;;;;;;5035736;28;20040;-74
2022/11/14 03:51:50;;;;;;;17.50;12.05;;;;;;;;;;5035766;28;20037;-74
2022/11/14 03:54:34;;;;;;;18.23;12.27;;;;;;;;;;5036840;28;20047;-74
2022/11/14 03:57:18;;;;;;;20.10;12.68;;;;;;;;;;5036587;28;20037;-74
2022/11/14 04:00:02;;;;;;;20.73;12.50;;;;;;;;;;5036073;28;20436;-74
2022/11/14 04:02:46;;;;;;;20.48;13.02;;;;;;;;;;5036143;28;20056;-74
2022/11/14 04:05:30;;;;;;;16.63;11.20;;;;;;;;;;5036749;28;20076;-74
2022/11/14 04:08:14;;;;;;;19.35;12.23;;;;;;;;;;5036488;28;20092;-74
2022/11/14 04:10:58;;;;;;;16.67;11.05;;;;;;;;;;5036260;28;20492;-74
2022/11/14 04:13:42;;;;;;;21.20;12.20;;;;;;;;;;5036513;28;20076;-74
2022/11/14 04:16:26;;;;;;;18.77;12.32;;;;;;;;;;5036238;28;20091;-76
2022/11/14 04:19:10;;;;;;;17.67;11.85;;;;;;;;;;5035979;28;20172;-76
2022/11/14 04:21:54;;;;;;;17.83;12.48;;;;;;;;;;5036214;28;20052;-76
2022/11/14 04:24:38;;;;;;;18.25;11.95;;;;;;;;;;5036221;28;20048;-75
2022/11/14 04:27:22;;;;;;;19.00;12.88;;;;;;;;;;5036295;28;20087;-75
2022/11/14 04:30:06;;;;;;;17.63;12.52;;;;;;;;;;5036027;28;20117;-76
2022/11/14 04:32:51;;;;;;;17.38;11.48;;;;;;;;;;5035932;28;20099;-76
2022/11/14 04:35:35;;;;;;;20.52;12.88;;;;;;;;;;5036029;28;20040;-76
2022/11/14 04:38:19;;;;;;;22.17;12.50;;;;;;;;;;5036548;28;20132;-76
2022/11/14 04:41:04;;;;;;;19.20;12.48;;;;;;;;;;5036128;28;20133;-76
2022/11/14 04:43:47;;;;;;;18.13;11.25;;;;;;;;;;5035541;28;20405;-77
2022/11/14 04:46:32;;;;;;;16.50;11.35;;;;;;;;;;5036026;28;20087;-77
2022/11/14 04:49:16;;;;;;;18.27;11.85;;;;;;;;;;5035567;28;20102;-76
2022/11/14 04:52:00;;;;;;;17.58;11.88;;;;;;;;;;5035084;28;20133;-76
2022/11/14 04:54:43;;;;;;;20.40;12.77;;;;;;;;;;5034350;28;20084;-75
2022/11/14 04:57:27;;;;;;;19.20;12.13;;;;;;;;;;5035628;28;20079;-75
2022/11/14 05:00:12;;;;;;;19.73;12.27;;;;;;;;;;5035716;28;20044;-76
2022/11/14 05:02:59;;;;;;;18.83;12.48;;;;;;;;;;5035299;28;20119;-76
2022/11/14 05:05:43;;;;;;;20.70;12.75;;;;;;;;;;5035538;28;20040;-75
2022/11/14 05:08:27;;;;;;;19.30;11.65;;;;;;;;;;5035278;28;20041;-76
2022/11/14 05:11:15;;;;;;;18.77;12.13;;;;;;;;;;5035649;28;20111;-76
2022/11/14 05:13:59;;;;;;;16.40;11.32;;;;;;;;;;5035755;28;20428;-76
2022/11/14 05:16:44;;;;;;;16.70;10.55;;;;;;;;;;5035686;28;20048;-75
2022/11/14 05:19:28;;;;;;;15.65;11.02;;;;;;;;;;5035117;28;20436;-75
2022/11/14 05:22:12;;;;;;;14.95;10.18;;;;;;;;;;5034770;28;20495;-77
2022/11/14 05:24:55;;;;;;;16.63;11.10;;;;;;;;;;5034618;28;20048;-77
2022/11/14 05:27:42;;;;;;;15.15;10.35;;;;;;;;;;5034528;28;20110;-77
2022/11/14 05:30:26;;;;;;;16.02;10.52;;;;;;;;;;5034356;28;20385;-76
2022/11/14 05:33:10;;;;;;;17.08;11.20;;;;;;;;;;5035171;28;20386;-76
2022/11/14 05:35:54;;;;;;;15.77;10.55;;;;;;;;;;5034510;28;20041;-78
2022/11/14 05:38:39;;;;;;;16.33;10.68;;;;;;;;;;5035489;28;20079;-76
2022/11/14 05:41:23;;;;;;;15.07;10.27;;;;;;;;;;5033983;28;20389;-77
2022/11/14 05:44:07;;;;;;;16.77;11.70;;;;;;;;;;5034488;28;20040;-75
2022/11/14 05:46:51;;;;;;;16.42;10.73;;;;;;;;;;5033517;28;20044;-75
2022/11/14 05:49:35;;;;;;;16.70;11.68;;;;;;;;;;5034920;28;20098;-75
2022/11/14 05:52:19;;;;;;;15.50;10.55;;;;;;;;;;5032854;28;20044;-74
2022/11/14 05:55:03;;;;;;;15.63;10.35;;;;;;;;;;5032373;28;20048;-75
2022/11/14 05:57:47;;;;;;;16.23;10.77;;;;;;;;;;5032242;28;20037;-74
2022/11/14 06:00:31;;;;;;;12.80;8.88;;;;;;;;;;5033885;28;20045;-75
2022/11/14 06:03:15;;;;;;;12.30;9.75;;;;;;;;;;5034487;28;20044;-75
2022/11/14 06:06:02;;;;;;;12.68;8.82;;;;;;;;;;5033537;28;20095;-75
2022/11/14 06:08:47;;;;;;;13.50;10.00;;;;;;;;;;5032968;28;20456;-75
2022/11/14 06:11:31;;;;;;;11.57;8.48;;;;;;;;;;5032375;28;20094;-75
2022/11/14 06:14:15;;;;;;;11.40;8.63;;;;;;;;;;5032913;28;20402;-74
2022/11/14 06:16:59;;;;;;;11.48;8.90;;;;;;;;;;5032753;28;20044;-74
2022/11/14 06:19:43;;;;;;;14.82;10.30;;;;;;;;;;5032148;28;20037;-75
2022/11/14 06:22:27;;;;;;;12.55;9.25;;;;;;;;;;5033110;28;20056;-75
2022/11/14 06:25:11;;;;;;;11.85;8.77;;;;;;;;;;5032678;28;20048;-74
2022/11/14 06:27:55;;;;;;;13.63;9.23;;;;;;;;;;5033030;28;20044;-74
2022/11/14 06:30:40;;;;;;;10.65;7.82;;;;;;;;;;5033107;28;20091;-74
2022/11/14 06:33:24;;;;;;;10.65;7.53;;;;;;;;;;5032820;28;20068;-74
2022/11/14 06:36:08;;;;;;;10.65;7.75;;;;;;;;;;5033703;28;20141;-74
2022/11/14 06:38:53;;;;;;;10.57;7.65;;;;;;;;;;5033783;28;20558;-74
2022/11/14 06:41:37;;;;;;;10.30;8.05;;;;;;;;;;5033764;28;20052;-74
2022/11/14 06:44:21;;;;;;;12.30;8.50;;;;;;;;;;5033951;28;20144;-74
2022/11/14 06:47:05;;;;;;;11.05;8.20;;;;;;;;;;5032495;28;20041;-74
2022/11/14 06:49:49;;;;;;;10.93;8.20;;;;;;;;;;5033548;28;20052;-74
2022/11/14 06:52:33;;;;;;;11.27;8.02;;;;;;;;;;5035127;28;20493;-74
2022/11/14 06:55:17;;;;;;;10.77;8.05;;;;;;;;;;5037870;28;20044;-76
2022/11/14 06:58:01;;;;;;;10.63;8.52;;;;;;;;;;5037157;28;20036;-76
2022/11/14 07:00:44;;;;;;;11.52;7.97;;;;;;;;;;5038321;28;20385;-76
2022/11/14 07:03:29;;;;;;;9.70;7.72;;;;;;;;;;5038412;28;20063;-76
2022/11/14 07:06:14;;;;;;;10.02;7.30;;;;;;;;;;5038124;28;20568;-76
2022/11/14 07:08:59;;;;;;;9.63;7.90;;;;;;;;;;5038165;28;20041;-76
2022/11/14 07:11:45;;;;;;;11.48;7.75;;;;;;;;;;5037772;28;20049;-76
2022/11/14 07:14:29;;;;;;;11.35;8.50;;;;;;;;;;5038374;28;20424;-77
2022/11/14 07:17:13;;;;;;;11.95;8.48;;;;;;;;;;5038329;28;20040;-77
2022/11/14 07:19:57;;;;;;;12.73;8.73;;;;;;;;;;5037963;28;20128;-77
2022/11/14 07:22:41;;;;;;;14.45;11.10;;;;;;;;;;5037303;28;20091;-77
2022/11/14 07:25:25;;;;;;;14.35;11.00;;;;;;;;;;5038084;28;20125;-77
2022/11/14 07:28:09;;;;;;;11.65;8.68;;;;;;;;;;5038051;28;20071;-77
2022/11/14 07:30:53;;;;;;;13.68;9.80;;;;;;;;;;5037908;28;20112;-77
2022/11/14 07:33:38;;;;;;;10.55;8.02;;;;;;;;;;5037636;28;20043;-77
2022/11/14 07:36:22;;;;;;;12.77;10.80;;;;;;;;;;5037476;28;20041;-77
2022/11/14 07:39:06;;;;;;;13.52;11.00;;;;;;;;;;5037684;28;20040;-77
2022/11/14 07:41:50;;;;;;;13.65;10.32;;;;;;;;;;5037558;28;20044;-77
2022/11/14 07:44:34;;;;;;;15.48;12.13;;;;;;;;;;5037030;28;20052;-77
2022/11/14 07:47:18;;;;;;;7.38;6.22;;;;;;;;;;5036888;28;20519;-77
2022/11/14 07:50:02;;;;;;;7.65;6.15;;;;;;;;;;5036186;28;20044;-77
2022/11/14 07:52:53;;;;;;;7.35;6.53;;;;;;;;;;5036993;28;20049;-77
2022/11/14 07:55:37;;;;;;;8.40;6.60;;;;;;;;;;5036890;28;20079;-77
2022/11/14 07:58:22;;;;;;;7.32;6.57;;;;;;;;;;5035952;28;20052;-77
2022/11/14 08:01:06;;;;;;;8.32;7.43;;;;;;;;;;5036854;28;20488;-76
2022/11/14 08:03:50;;;;;;;9.02;7.38;;;;;;;;;;5036252;28;20052;-77
2022/11/14 08:06:34;;;;;;;9.70;6.80;;;;;;;;;;5036964;28;20036;-75
2022/11/14 08:09:18;;;;;;;7.13;6.13;;;;;;;;;;5036957;28;20430;-74
2022/11/14 08:12:02;;;;;;;6.88;6.18;;;;;;;;;;5036711;28;20041;-74
2022/11/14 08:14:46;;;;;;;9.30;8.05;;;;;;;;;;5035573;28;20088;-74
2022/11/14 08:17:30;;;;;;;7.50;6.78;;;;;;;;;;5036806;28;20044;-74
2022/11/14 08:20:14;;;;;;;7.38;6.50;;;;;;;;;;5036182;28;20491;-74
2022/11/14 08:23:02;;;;;;;8.15;7.00;;;;;;;;;;5036409;28;20040;-75
2022/11/14 08:25:46;;;;;;;10.02;7.10;;;;;;;;;;5035659;28;20083;-75
2022/11/14 08:28:30;;;;;;;6.90;6.20;;;;;;;;;;5036329;28;20543;-75
2022/11/14 08:31:14;;;;;;;7.63;6.35;;;;;;;;;;5036149;28;20099;-74
2022/11/14 08:33:58;;;;;;;8.45;6.07;;;;;;;;;;5036431;28;20445;-74
2022/11/14 08:36:42;;;;;;;8.45;7.22;;;;;;;;;;5036127;28;20040;-74
2022/11/14 08:39:26;;;;;;;10.63;7.68;;;;;;;;;;5036372;28;20041;-74
2022/11/14 08:42:10;;;;;;;10.68;7.88;;;;;;;;;;5036309;28;20064;-75
2022/11/14 08:44:54;;;;;;;8.13;6.45;;;;;;;;;;5035566;28;20084;-74
2022/11/14 08:47:38;;;;;;;9.57;8.07;;;;;;;;;;5034632;28;20075;-74
2022/11/14 08:50:22;;;;;;;8.70;6.78;;;;;;;;;;5035896;28;20040;-74
2022/11/14 08:53:06;;;;;;;15.20;11.15;;;;;;;;;;5035578;28;20044;-74
2022/11/14 08:55:50;;;;;;;10.32;7.50;;;;;;;;;;5035812;28;20448;-74
2022/11/14 08:58:34;;;;;;;11.38;8.52;;;;;;;;;;5036017;28;20041;-74
2022/11/14 09:01:19;;;;;;;9.80;7.93;;;;;;;;;;5037955;28;20040;-75
2022/11/14 09:04:03;;;;;;;17.23;12.68;;;;;;;;;;5038364;28;20052;-74
2022/11/14 09:06:47;;;;;;;7.18;6.47;;;;;;;;;;5037009;28;20499;-74
2022/11/14 09:09:31;;;;;;;8.70;6.53;;;;;;;;;;5035568;28;20058;-74
2022/11/14 09:12:16;;;;;;;7.72;6.78;;;;;;;;;;5035554;28;20473;-74
2022/11/14 09:15:00;;;;;;;7.97;7.20;;;;;;;;;;5035411;28;20108;-74
2022/11/14 09:17:44;;;;;;;8.50;6.88;;;;;;;;;;5035637;28;20068;-74
2022/11/14 09:20:29;;;;;;;9.80;7.70;;;;;;;;;;5035585;28;20095;-74
2022/11/14 09:23:13;;;;;;;13.73;9.40;;;;;;;;;;5035531;28;20041;-74
2022/11/14 09:26:02;;;;;;;10.00;7.57;;;;;;;;;;5035170;28;20052;-74
2022/11/14 09:28:46;;;;;;;10.65;8.05;;;;;;;;;;5035131;28;20075;-74
2022/11/14 09:31:30;;;;;;;7.78;6.53;;;;;;;;;;5034995;28;20532;-74
2022/11/14 09:34:14;;;;;;;11.75;8.43;;;;;;;;;;5035065;28;20040;-74
2022/11/14 09:36:58;;;;;;;9.60;7.82;;;;;;;;;;5034713;28;20047;-74
2022/11/14 09:39:42;;;;;;;7.43;6.57;;;;;;;;;;5050206;22;20052;-76
2022/11/14 09:42:40;;;;;;;7.10;6.40;;;;;;;;;;5015156;28;20040;-76
2022/11/14 09:45:24;;;;;;;8.90;7.63;;;;;;;;;;5015150;28;20053;-76
2022/11/14 09:48:12;;;;;;;8.13;6.40;;;;;;;;;;5015092;28;20435;-76
2022/11/14 09:51:07;;;;;;;11.50;9.80;;;;;;;;;;5014196;28;20100;-76
2022/11/14 09:54:03;;;;;;;9.95;7.32;;;;;;;;;;5014969;28;20435;-76
2022/11/14 09:56:48;;;;;;;10.43;8.73;;;;;;;;;;5014888;28;20041;-76
2022/11/14 09:59:33;;;;;;;9.60;8.05;;;;;;;;;;5015128;28;20037;-76
2022/11/14 10:02:19;;;;;;;10.85;9.52;;;;;;;;;;5014825;28;20041;-74
2022/11/14 10:05:10;;;;;;;8.43;7.57;;;;;;;;;;5013836;28;20072;-74
2022/11/14 10:08:11;;;;;;;8.70;7.35;;;;;;;;;;5014763;28;20133;-74
2022/11/14 10:10:58;;;;;;;9.80;7.95;;;;;;;;;;5014701;28;20126;-74
2022/11/14 10:14:01;;;;;;;19.98;17.80;;;;;;;;;;5014960;28;20496;-74
2022/11/14 10:17:03;;;;;;;7.88;7.07;;;;;;;;;;5014618;28;20508;-74
2022/11/14 10:19:47;;;;;;;25.60;23.05;;;;;;;;;;5013333;28;20037;-74
2022/11/14 10:22:34;;;;;;;15.57;13.10;;;;;;;;;;5014565;28;20044;-74
2022/11/14 10:25:19;;;;;;;31.20;21.27;;;;;;;;;;5014204;28;20108;-74
2022/11/14 10:28:09;;;;;;;13.80;11.80;;;;;;;;;;5014347;28;20185;-74
2022/11/14 10:30:59;;;;;;;14.45;10.77;;;;;;;;;;5014195;28;20469;-74
2022/11/14 10:34:03;;;;;;;10.90;8.35;;;;;;;;;;5013684;28;20092;-74
2022/11/14 10:36:47;;;;;;;9.57;8.43;;;;;;;;;;5013111;28;20163;-74
2022/11/14 10:39:38;;;;;;;11.27;8.70;;;;;;;;;;5013930;28;20041;-73
2022/11/14 10:42:23;;;;;;;10.15;7.95;;;;;;;;;;5013358;28;20509;-73
2022/11/14 10:45:25;;;;;;;9.60;7.10;;;;;;;;;;5014011;28;20040;-73
2022/11/14 10:48:24;;;;;;;11.38;8.60;;;;;;;;;;5014254;28;20504;-73
2022/11/14 10:51:27;;;;;;;13.35;9.52;;;;;;;;;;5014437;28;20056;-73
2022/11/14 10:54:14;;;;;;;11.70;9.13;;;;;;;;;;5013954;28;20044;-73
2022/11/14 10:56:58;;;;;;;14.10;10.40;;;;;;;;;;5014455;28;20045;-73
2022/11/14 10:59:42;;;;;;;14.68;11.15;;;;;;;;;;5013882;28;20125;-73
2022/11/14 11:02:45;;;;;;;55.20;32.95;;;;;;;;;;5014128;28;20092;-73
2022/11/14 11:05:29;;;;;;;25.40;16.88;;;;;;;;;;5013111;28;20041;-73
2022/11/14 11:11:29;;;;;;;16.65;11.48;;;;;;;;;;5014048;28;20088;-73
2022/11/14 11:14:15;;;;;;;15.90;10.45;;;;;;;;;;5014034;28;20044;-73
2022/11/14 11:17:11;;;;;;;13.85;10.48;;;;;;;;;;5014255;28;20088;-73
2022/11/14 11:20:13;;;;;;;14.15;10.32;;;;;;;;;;5013255;28;20445;-73
2022/11/14 11:23:10;;;;;;;10.65;8.50;;;;;;;;;;5013960;28;20049;-73
2022/11/14 11:29:00;;;;;;;11.45;8.48;;;;;;;;;;4973362;28;20089;-75
2022/11/14 11:32:04;;;;;;;12.38;9.90;;;;;;;;;;4974441;28;20046;-75
2022/11/14 11:34:50;;;;;;;12.02;9.95;;;;;;;;;;4974577;28;20115;-75
2022/11/14 11:37:42;;;;;;;19.58;14.52;;;;;;;;;;4962365;28;20530;-75
2022/11/14 11:40:28;;;;;;;11.93;8.30;;;;;;;;;;4981403;28;20097;-75
2022/11/14 11:43:29;;;;;;;12.07;7.80;;;;;;;;;;4980844;28;20126;-75
2022/11/14 11:46:36;;;;;;;12.63;10.70;;;;;;;;;;4979284;28;20158;-75
2022/11/14 11:49:29;;;;;;;9.43;8.18;;;;;;;;;;4964555;28;20119;-75
2022/11/14 11:52:13;;;;;;;11.68;8.40;;;;;;;;;;4978378;28;20066;-75
2022/11/14 11:55:17;;;;;;;10.75;8.82;;;;;;;;;;4978807;28;20037;-75
2022/11/14 11:58:19;;;;;;;10.45;8.30;;;;;;;;;;4960665;28;20062;-75
2022/11/14 12:01:04;;;;;;;9.77;7.13;;;;;;;;;;4978184;28;20037;-75
2022/11/14 12:03:49;;;;;;;9.10;6.80;;;;;;;;;;4963454;28;20125;-75
2022/11/14 12:06:38;;;;;;;10.82;8.57;;;;;;;;;;4978435;28;20438;-75
2022/11/14 12:09:32;;;;;;;13.48;9.63;;;;;;;;;;4977798;28;20101;-75
2022/11/14 12:12:29;;;;;;;14.00;9.70;;;;;;;;;;4977757;28;20539;-75
2022/11/14 12:15:23;;;;;;;14.65;13.05;;;;;;;;;;4978123;28;20041;-75
2022/11/14 12:18:25;;;;;;;14.60;9.77;;;;;;;;;;4975783;28;20034;-75
2022/11/14 12:21:18;;;;;;;17.00;12.07;;;;;;;;;;4976498;28;20046;-75
2022/11/14 12:24:29;;;;;;;13.85;9.65;;;;;;;;;;4976473;28;20037;-74
2022/11/14 12:27:29;;;;;;;8.77;7.30;;;;;;;;;;4941235;29;20097;-68
2022/11/14 12:30:12;;;;;;;8.20;6.93;;;;;;;;;;4955329;29;20042;-73
2022/11/14 12:33:02;;;;;;;7.88;6.55;;;;;;;;;;4956746;29;20125;-73
2022/11/14 12:35:50;;;;;;;7.97;6.75;;;;;;;;;;4955792;29;20459;-73
2022/11/14 12:38:41;;;;;;;8.90;7.47;;;;;;;;;;4955726;29;20102;-73
2022/11/14 12:41:26;;;;;;;9.35;7.70;;;;;;;;;;4956777;29;20102;-73
2022/11/14 12:44:27;;;;;;;9.93;7.25;;;;;;;;;;4956407;29;20053;-73
2022/11/14 12:47:12;;;;;;;10.07;7.45;;;;;;;;;;4956702;29;20086;-73
2022/11/14 12:49:58;;;;;;;10.55;7.57;;;;;;;;;;4956303;28;20133;-73
2022/11/14 12:52:47;;;;;;;7.85;7.07;;;;;;;;;;4955278;29;20074;-73
2022/11/14 12:55:31;;;;;;;12.80;8.75;;;;;;;;;;4956193;29;20119;-73
2022/11/14 12:58:18;;;;;;;13.23;9.25;;;;;;;;;;4955381;29;20090;-73
2022/11/14 13:01:14;;;;;;;14.38;9.85;;;;;;;;;;4955966;29;20090;-73
2022/11/14 13:04:07;;;;;;;11.20;8.70;;;;;;;;;;4956009;29;20519;-73
2022/11/14 13:07:03;;;;;;;13.23;8.93;;;;;;;;;;4956167;29;20043;-74
2022/11/14 13:09:59;;;;;;;13.80;10.70;;;;;;;;;;4955463;29;20034;-74
2022/11/14 13:22:12;;;;;;;12.60;10.02;;;;;;;;;;4955466;29;20046;-73
2022/11/14 13:24:59;;;;;;;12.65;9.32;;;;;;;;;;4954740;29;20105;-73
2022/11/14 13:27:43;;;;;;;28.58;15.65;;;;;;;;;;4954379;29;20050;-73
2022/11/14 13:30:46;;;;;;;14.82;9.80;;;;;;;;;;4955683;29;20431;-73
2022/11/14 13:33:40;;;;;;;12.98;9.40;;;;;;;;;;4955390;29;20046;-73
2022/11/14 13:36:34;;;;;;;22.88;13.15;;;;;;;;;;4955237;29;20058;-73
2022/11/14 13:39:25;;;;;;;19.30;11.48;;;;;;;;;;4955615;29;20063;-74
2022/11/14 13:42:19;;;;;;;14.43;10.82;;;;;;;;;;4955296;29;20114;-73
2022/11/14 13:45:21;;;;;;;36.58;18.63;;;;;;;;;;4955981;29;20509;-73
2022/11/14 13:48:17;;;;;;;81.78;31.15;;;;;;;;;;4954740;29;20127;-73
2022/11/14 13:51:04;;;;;;;15.93;11.52;;;;;;;;;;4953572;29;20094;-73
2022/11/14 13:53:48;;;;;;;14.07;10.65;;;;;;;;;;4954806;29;20550;-73
2022/11/14 13:56:41;;;;;;;14.40;9.93;;;;;;;;;;4955545;29;20065;-73
2022/11/14 13:59:34;;;;;;;14.02;9.63;;;;;;;;;;4955569;29;20046;-74
2022/11/14 14:02:18;;;;;;;19.50;10.68;;;;;;;;;;4955394;28;20045;-73
2022/11/14 14:05:11;;;;;;;15.85;11.20;;;;;;;;;;4955758;29;20279;-73
2022/11/14 14:08:10;;;;;;;15.35;10.45;;;;;;;;;;4956440;29;20078;-74
2022/11/14 14:11:13;;;;;;;18.25;11.48;;;;;;;;;;4956419;29;20446;-73
2022/11/14 14:14:18;;;;;;;17.10;10.70;;;;;;;;;;4956307;29;20457;-73
2022/11/14 14:17:08;;;;;;;17.52;11.25;;;;;;;;;;4955103;29;20043;-74
2022/11/14 14:20:10;;;;;;;19.05;12.20;;;;;;;;;;4956298;29;20066;-73
2022/11/14 14:23:14;;;;;;;17.45;11.20;;;;;;;;;;4955530;29;20057;-73
2022/11/14 14:26:01;;;;;;;20.42;13.38;;;;;;;;;;4955245;29;20038;-73
2022/11/14 14:28:45;;;;;;;20.33;12.50;;;;;;;;;;4954170;29;20046;-73
2022/11/14 14:31:34;;;;;;;17.33;10.88;;;;;;;;;;4954746;29;20086;-74
2022/11/14 14:34:25;;;;;;;19.48;12.07;;;;;;;;;;4954770;29;20043;-74
2022/11/14 14:37:19;;;;;;;22.60;12.98;;;;;;;;;;4954804;29;20046;-74
2022/11/14 14:40:04;;;;;;;18.67;11.43;;;;;;;;;;4954695;29;20043;-74
2022/11/14 14:42:49;;;;;;;20.60;13.52;;;;;;;;;;4953177;29;20050;-74
2022/11/14 14:45:54;;;;;;;37.45;18.17;;;;;;;;;;4955331;29;20046;-74
2022/11/14 14:48:40;;;;;;;25.40;14.13;;;;;;;;;;4955046;29;20077;-74
2022/11/14 14:51:28;;;;;;;39.10;18.90;;;;;;;;;;4954812;29;20046;-73
2022/11/14 14:54:27;;;;;;;19.70;12.10;;;;;;;;;;4953126;29;20435;-74
2022/11/14 14:57:16;;;;;;;23.17;15.75;;;;;;;;;;4954634;29;20115;-74
2022/11/14 15:00:02;;;;;;;24.40;16.98;;;;;;;;;;4954581;29;20599;-74
2022/11/14 15:02:46;;;;;;;21.00;13.02;;;;;;;;;;4954485;29;20155;-74
2022/11/14 15:05:31;;;;;;;22.15;13.35;;;;;;;;;;4954642;29;20162;-74
2022/11/14 15:08:15;;;;;;;21.60;14.23;;;;;;;;;;4954125;29;20046;-74
2022/11/14 15:11:01;;;;;;;21.55;13.50;;;;;;;;;;4954560;29;20042;-74
2022/11/14 15:13:45;;;;;;;20.48;13.23;;;;;;;;;;4955361;28;20097;-74
2022/11/14 15:16:30;;;;;;;21.10;12.68;;;;;;;;;;4958603;29;20043;-74
2022/11/14 15:19:14;;;;;;;20.25;12.98;;;;;;;;;;4958204;29;20551;-74
2022/11/14 15:22:20;;;;;;;24.75;15.52;;;;;;;;;;4957060;29;20042;-74
2022/11/14 15:25:13;;;;;;;28.65;17.77;;;;;;;;;;4958294;29;20053;-74
2022/11/14 15:27:59;;;;;;;29.23;16.23;;;;;;;;;;4972729;28;20121;-74
2022/11/14 15:30:54;;;;;;;66.22;35.90;;;;;;;;;;4977425;28;20049;-74
2022/11/14 15:33:39;;;;;;;106.80;56.45;;;;;;;;;;4977030;28;20450;-74
2022/11/14 15:36:22;;;;;;;48.15;27.08;;;;;;;;;;4977355;28;20134;-74
2022/11/14 15:39:42;;;;;;;103.95;48.78;;;;;;;;;;4962644;28;20086;-74
2022/11/14 15:42:30;;;;;;;89.27;39.03;;;;;;;;;;4898524;29;20393;-74
2022/11/14 15:45:21;;;;;;;107.15;49.00;;;;;;;;;;4977580;28;20109;-74
2022/11/14 15:48:11;;;;;;;55.05;30.15;;;;;;;;;;4978099;28;20045;-74
2022/11/14 15:50:55;;;;;;;52.47;32.15;;;;;;;;;;4963614;28;20090;-74
2022/11/14 15:53:44;;;;;;;46.60;25.05;;;;;;;;;;4978121;28;20042;-74
2022/11/14 15:56:29;;;;;;;80.93;43.00;;;;;;;;;;4978301;28;20046;-74
2022/11/14 15:59:12;;;;;;;85.13;34.65;;;;;;;;;;4977889;28;20037;-73
2022/11/14 16:01:58;;;;;;;93.40;38.22;;;;;;;;;;4977137;28;20560;-73
2022/11/14 16:04:42;;;;;;;59.53;24.63;;;;;;;;;;4976897;28;20042;-73
2022/11/14 16:07:27;;;;;;;59.40;25.77;;;;;;;;;;4976726;28;20089;-73
2022/11/14 16:10:16;;;;;;;60.17;27.55;;;;;;;;;;4976671;28;20395;-73
2022/11/14 16:13:00;;;;;;;68.82;28.77;;;;;;;;;;4976347;28;20126;-74
2022/11/14 16:15:44;;;;;;;100.57;42.03;;;;;;;;;;4976520;28;20085;-74
2022/11/14 16:18:28;;;;;;;75.22;30.00;;;;;;;;;;4962382;28;20042;-74
2022/11/14 16:21:14;;;;;;;57.25;27.08;;;;;;;;;;4977365;28;20170;-74
2022/11/14 16:24:00;;;;;;;71.75;35.40;;;;;;;;;;4961769;28;20117;-74
2022/11/14 16:26:44;;;;;;;38.58;22.48;;;;;;;;;;4975594;28;20105;-74
2022/11/14 16:29:28;;;;;;;55.83;29.10;;;;;;;;;;4975963;28;20454;-75
2022/11/14 16:32:12;;;;;;;39.88;23.00;;;;;;;;;;4976037;28;20128;-74
2022/11/14 16:34:55;;;;;;;39.35;21.42;;;;;;;;;;4961473;28;20046;-74